Time;durP1;ratioP1;P1;durP2;ratioP2;P2;SDS_P1;SDS_P2;PMS_P1;PMS_P2;Temp;Humidity;BMP_temperature;BMP_pressure;BME280_temperature;BME280_humidity;BME280_pressure;Samples;Min_cycle;Max_cycle;Signal;HPM_P1;HPM_P2
2021/04/30 00:02:18;;;;;;;7.80;6.97;;;9.80;91.00;;;;;;4953109;28;20029;-71
2021/04/30 00:04:43;;;;;;;8.98;7.35;;;9.80;90.70;;;;;;4955178;28;20089;-67
2021/04/30 00:07:09;;;;;;;8.02;7.22;;;9.80;91.00;;;;;;4973006;28;20078;-68
2021/04/30 00:09:36;;;;;;;8.32;7.45;;;9.80;91.20;;;;;;4972168;28;20046;-68
2021/04/30 00:12:02;;;;;;;9.63;8.30;;;9.60;91.70;;;;;;4954651;28;20125;-68
2021/04/30 00:14:28;;;;;;;11.23;8.98;;;9.60;91.80;;;;;;4953926;28;20031;-68
2021/04/30 00:16:53;;;;;;;11.20;8.40;;;9.50;92.20;;;;;;4954678;28;20034;-68
2021/04/30 00:19:20;;;;;;;13.15;9.02;;;9.40;92.70;;;;;;4971163;28;20054;-68
2021/04/30 00:21:45;;;;;;;15.20;9.88;;;9.30;93.00;;;;;;4972428;28;20034;-69
2021/04/30 00:24:12;;;;;;;14.98;10.02;;;9.40;93.90;;;;;;4954232;28;20023;-79
2021/04/30 00:26:38;;;;;;;12.60;9.32;;;9.40;96.60;;;;;;4971915;28;20038;-68
2021/04/30 00:29:05;;;;;;;11.70;9.68;;;9.40;95.90;;;;;;4954724;28;20070;-68
2021/04/30 00:31:30;;;;;;;12.15;10.73;;;9.20;94.30;;;;;;4953850;28;20019;-67
2021/04/30 00:33:57;;;;;;;13.07;10.20;;;9.20;94.40;;;;;;4972248;28;20031;-67
2021/04/30 00:36:23;;;;;;;12.38;9.18;;;9.20;94.70;;;;;;4971150;28;20026;-68
2021/04/30 00:38:48;;;;;;;15.60;10.23;;;9.20;95.00;;;;;;4971845;28;20029;-68
2021/04/30 00:41:14;;;;;;;11.60;10.35;;;9.10;95.30;;;;;;4953810;28;20097;-68
2021/04/30 00:43:40;;;;;;;13.88;9.85;;;9.20;95.30;;;;;;4971535;28;20059;-68
2021/04/30 00:46:05;;;;;;;11.20;9.43;;;9.20;95.20;;;;;;4954345;28;20121;-68
2021/04/30 00:48:31;;;;;;;13.15;10.80;;;9.30;95.20;;;;;;4953717;28;20483;-67
2021/04/30 00:50:57;;;;;;;11.00;9.30;;;9.40;94.90;;;;;;4954397;28;20026;-68
2021/04/30 00:53:23;;;;;;;12.75;10.05;;;9.40;95.00;;;;;;4971165;28;20026;-69
2021/04/30 00:55:49;;;;;;;16.42;10.40;;;9.40;95.30;;;;;;4972309;28;20133;-69
2021/04/30 00:58:14;;;;;;;13.55;10.55;;;9.10;95.70;;;;;;4953644;28;20023;-70
2021/04/30 01:00:40;;;;;;;15.35;10.55;;;9.10;95.80;;;;;;4971749;28;20027;-69
2021/04/30 01:03:08;;;;;;;12.32;10.13;;;9.10;96.20;;;;;;4954113;28;20026;-69
2021/04/30 01:05:34;;;;;;;13.10;10.63;;;9.10;96.30;;;;;;4953543;28;20570;-69
2021/04/30 01:08:00;;;;;;;14.50;10.65;;;9.00;96.50;;;;;;4954123;28;20065;-67
2021/04/30 01:10:26;;;;;;;12.80;9.07;;;9.20;96.20;;;;;;4953454;28;20113;-67
2021/04/30 01:12:51;;;;;;;11.77;10.10;;;9.20;96.10;;;;;;4953921;28;20038;-67
2021/04/30 01:15:18;;;;;;;18.13;10.07;;;9.10;96.40;;;;;;4953563;28;20027;-68
2021/04/30 01:17:44;;;;;;;13.77;10.18;;;9.00;96.80;;;;;;4971229;28;20137;-67
2021/04/30 01:20:11;;;;;;;14.10;10.95;;;8.90;97.00;;;;;;4953811;28;20034;-67
2021/04/30 01:22:42;;;;;;;11.57;9.75;;;9.10;96.80;;;;;;4953416;28;20030;-67
2021/04/30 01:25:13;;;;;;;14.02;9.75;;;9.00;97.30;;;;;;4955247;28;20037;-68
2021/04/30 01:27:38;;;;;;;14.27;10.02;;;9.00;96.80;;;;;;4974296;28;20030;-71
2021/04/30 01:30:07;;;;;;;13.48;10.15;;;9.00;96.90;;;;;;4975019;28;20025;-67
2021/04/30 01:32:33;;;;;;;14.00;9.88;;;9.10;96.80;;;;;;4974351;28;20033;-68
2021/04/30 01:34:58;;;;;;;14.00;9.32;;;9.10;96.70;;;;;;4974557;28;20026;-68
2021/04/30 01:37:25;;;;;;;13.63;11.07;;;9.20;96.60;;;;;;4974190;28;20092;-68
2021/04/30 01:39:51;;;;;;;16.75;10.93;;;9.20;96.60;;;;;;4974841;28;20026;-67
2021/04/30 01:42:17;;;;;;;14.43;10.40;;;9.20;96.90;;;;;;4973767;28;20077;-70
2021/04/30 01:44:42;;;;;;;12.27;9.95;;;9.20;96.60;;;;;;4956623;28;20047;-68
2021/04/30 01:47:08;;;;;;;12.50;10.35;;;9.20;96.60;;;;;;4957175;28;20054;-68
2021/04/30 01:49:34;;;;;;;12.73;10.50;;;9.20;96.50;;;;;;4973490;28;20350;-67
2021/04/30 01:52:00;;;;;;;11.82;9.95;;;9.20;96.50;;;;;;4956872;28;20122;-68
2021/04/30 01:54:25;;;;;;;14.90;10.43;;;9.10;96.70;;;;;;4973787;28;20022;-67
2021/04/30 01:56:51;;;;;;;15.02;10.95;;;9.10;96.80;;;;;;4974670;28;20015;-67
2021/04/30 01:59:17;;;;;;;16.75;11.18;;;9.10;96.90;;;;;;4973535;28;20030;-73
2021/04/30 02:01:43;;;;;;;15.77;10.75;;;9.00;96.90;;;;;;4957457;28;20300;-68
2021/04/30 02:04:11;;;;;;;15.05;10.25;;;9.00;97.10;;;;;;4957575;28;20441;-68
2021/04/30 02:06:41;;;;;;;13.80;10.68;;;9.00;97.30;;;;;;4956078;28;20217;-68
2021/04/30 02:09:07;;;;;;;13.23;10.73;;;9.00;97.30;;;;;;4974147;28;20114;-69
2021/04/30 02:11:35;;;;;;;13.05;10.68;;;8.90;97.60;;;;;;4956053;28;20453;-68
2021/04/30 02:14:01;;;;;;;17.23;12.57;;;8.90;97.60;;;;;;4973711;28;20038;-68
2021/04/30 02:16:27;;;;;;;12.85;10.02;;;8.90;97.70;;;;;;4973225;28;20071;-68
2021/04/30 02:18:52;;;;;;;14.45;10.57;;;8.90;97.90;;;;;;4973745;28;20453;-68
2021/04/30 02:21:18;;;;;;;14.35;11.23;;;8.90;98.00;;;;;;4957257;28;20452;-77
2021/04/30 02:23:44;;;;;;;14.68;11.32;;;8.90;97.70;;;;;;4976113;28;20419;-67
2021/04/30 02:26:10;;;;;;;13.10;10.77;;;8.80;98.10;;;;;;4957345;28;20038;-67
2021/04/30 02:28:36;;;;;;;14.38;10.90;;;8.80;98.30;;;;;;4973514;28;20026;-67
2021/04/30 02:31:01;;;;;;;15.13;10.52;;;8.80;98.40;;;;;;4973999;28;20027;-68
2021/04/30 02:33:27;;;;;;;12.55;10.95;;;8.80;98.50;;;;;;4955603;28;20073;-67
2021/04/30 02:35:53;;;;;;;13.18;11.20;;;8.80;98.20;;;;;;4974369;28;20026;-68
2021/04/30 02:38:20;;;;;;;15.38;10.82;;;8.70;98.60;;;;;;4974149;28;20481;-79
2021/04/30 02:40:48;;;;;;;13.82;11.75;;;8.70;99.90;;;;;;4957642;28;20152;-67
2021/04/30 02:43:19;;;;;;;19.70;11.18;;;8.70;99.90;;;;;;4974934;28;20050;-67
2021/04/30 02:45:50;;;;;;;12.93;10.55;;;8.70;99.90;;;;;;4976799;28;20065;-67
2021/04/30 02:48:24;;;;;;;15.75;12.25;;;8.60;99.90;;;;;;4958426;28;20066;-67
2021/04/30 02:50:49;;;;;;;16.60;10.73;;;8.60;99.90;;;;;;4974215;28;20026;-67
2021/04/30 02:53:15;;;;;;;17.75;11.43;;;8.70;99.90;;;;;;4955782;28;20164;-69
2021/04/30 02:55:41;;;;;;;11.38;10.15;;;8.60;99.90;;;;;;4973114;28;20109;-67
2021/04/30 02:58:07;;;;;;;14.93;10.63;;;8.70;99.90;;;;;;4973354;28;20030;-67
2021/04/30 03:00:32;;;;;;;17.92;11.27;;;8.70;99.90;;;;;;4973205;28;20105;-67
2021/04/30 03:03:00;;;;;;;12.90;10.18;;;8.60;99.90;;;;;;4956032;28;20321;-68
2021/04/30 03:05:25;;;;;;;14.48;10.93;;;8.70;99.90;;;;;;4973449;28;20027;-67
2021/04/30 03:07:51;;;;;;;12.68;10.07;;;8.60;99.90;;;;;;4974496;28;20059;-69
2021/04/30 03:10:17;;;;;;;15.00;10.15;;;8.50;99.90;;;;;;4974298;28;20314;-69
2021/04/30 03:12:43;;;;;;;14.20;10.15;;;8.50;99.90;;;;;;4973895;28;20121;-68
2021/04/30 03:15:12;;;;;;;14.00;10.02;;;8.30;99.90;;;;;;4956664;28;20452;-68
2021/04/30 03:17:38;;;;;;;13.32;10.85;;;8.10;99.90;;;;;;4956427;28;20026;-68
2021/04/30 03:20:04;;;;;;;12.60;10.90;;;8.20;99.90;;;;;;4975723;28;20034;-68
2021/04/30 03:22:30;;;;;;;15.13;11.73;;;8.00;99.90;;;;;;4958424;28;20057;-67
2021/04/30 03:24:56;;;;;;;15.40;11.75;;;8.10;99.90;;;;;;4958063;28;20027;-68
2021/04/30 03:27:22;;;;;;;16.17;11.70;;;8.10;99.90;;;;;;4973632;28;20053;-69
2021/04/30 03:29:48;;;;;;;22.08;13.15;;;8.20;99.90;;;;;;4955644;28;20232;-68
2021/04/30 03:32:13;;;;;;;16.45;13.07;;;8.20;99.90;;;;;;4955785;28;20110;-67
2021/04/30 03:34:39;;;;;;;13.20;11.70;;;8.20;99.90;;;;;;4955161;28;20401;-68
2021/04/30 03:37:05;;;;;;;14.95;11.25;;;8.20;99.90;;;;;;4955266;28;20022;-68
2021/04/30 03:39:31;;;;;;;12.80;10.90;;;8.20;99.90;;;;;;4973567;28;20074;-68
2021/04/30 03:41:57;;;;;;;16.63;11.15;;;8.30;99.90;;;;;;4957145;28;20034;-68
2021/04/30 03:44:23;;;;;;;25.67;12.68;;;8.20;99.90;;;;;;4974515;28;20042;-77
2021/04/30 03:46:49;;;;;;;15.63;12.15;;;8.10;99.90;;;;;;4957579;28;20045;-74
2021/04/30 03:49:15;;;;;;;15.45;12.43;;;8.10;99.90;;;;;;4975633;28;20038;-69
2021/04/30 03:51:41;;;;;;;18.00;11.93;;;8.10;99.90;;;;;;4976990;28;20238;-67
2021/04/30 03:54:06;;;;;;;14.23;11.95;;;8.10;99.90;;;;;;4976586;28;20088;-67
2021/04/30 03:56:32;;;;;;;15.70;11.00;;;8.00;99.90;;;;;;4975301;28;20062;-71
2021/04/30 03:58:58;;;;;;;15.57;12.73;;;8.10;99.90;;;;;;4974733;28;20106;-67
2021/04/30 04:01:24;;;;;;;17.92;12.95;;;8.00;99.90;;;;;;4956488;28;20412;-69
2021/04/30 04:03:51;;;;;;;23.92;13.30;;;8.10;99.90;;;;;;4957553;28;20110;-68
2021/04/30 04:06:16;;;;;;;16.65;13.40;;;7.90;99.90;;;;;;4973505;28;20106;-68
2021/04/30 04:08:42;;;;;;;20.05;12.52;;;7.90;99.90;;;;;;4974666;28;20129;-68
2021/04/30 04:11:08;;;;;;;16.00;11.73;;;7.90;99.90;;;;;;4975992;28;20050;-69
2021/04/30 04:13:33;;;;;;;18.25;12.75;;;7.80;99.90;;;;;;4959436;28;20488;-70
2021/04/30 04:16:02;;;;;;;15.63;12.00;;;7.90;99.90;;;;;;4958921;28;20089;-69
2021/04/30 04:18:28;;;;;;;15.55;12.32;;;7.80;99.90;;;;;;4974790;28;20023;-67
2021/04/30 04:20:54;;;;;;;16.95;12.95;;;7.90;99.90;;;;;;4956879;28;20030;-67
2021/04/30 04:23:20;;;;;;;22.60;13.02;;;7.90;99.90;;;;;;4957688;28;20034;-68
2021/04/30 04:25:46;;;;;;;19.65;12.95;;;7.90;99.90;;;;;;4973346;28;20031;-68
2021/04/30 04:28:12;;;;;;;17.13;13.77;;;7.80;99.90;;;;;;4955905;28;20035;-68
2021/04/30 04:30:38;;;;;;;17.50;12.55;;;7.50;99.90;;;;;;4955028;28;20027;-68
2021/04/30 04:33:04;;;;;;;17.63;12.10;;;7.50;99.90;;;;;;4974268;28;20026;-68
2021/04/30 04:35:29;;;;;;;15.90;12.55;;;7.60;99.90;;;;;;4957833;28;20038;-75
2021/04/30 04:37:55;;;;;;;17.60;11.93;;;7.60;99.90;;;;;;4956591;28;20019;-69
2021/04/30 04:40:22;;;;;;;21.52;12.50;;;7.50;99.90;;;;;;4972687;28;20341;-68
2021/04/30 04:42:48;;;;;;;19.17;12.18;;;7.40;99.90;;;;;;4953919;28;20081;-66
2021/04/30 04:45:15;;;;;;;15.48;12.30;;;7.40;99.90;;;;;;4972124;28;20077;-70
2021/04/30 04:47:42;;;;;;;20.15;11.88;;;7.30;99.90;;;;;;4971844;28;20140;-67
2021/04/30 04:50:09;;;;;;;19.08;13.30;;;7.30;99.90;;;;;;4972055;28;20076;-69
2021/04/30 04:52:35;;;;;;;17.95;14.57;;;7.30;99.90;;;;;;4971430;28;20348;-69
2021/04/30 04:55:01;;;;;;;23.48;14.57;;;7.40;99.90;;;;;;4972086;28;20031;-69
2021/04/30 04:57:27;;;;;;;18.83;14.05;;;7.50;99.90;;;;;;4954559;28;20081;-68
2021/04/30 04:59:52;;;;;;;18.13;14.82;;;7.60;99.90;;;;;;4955623;28;20023;-68
2021/04/30 05:02:18;;;;;;;18.67;13.52;;;7.60;99.90;;;;;;4976494;28;20045;-68
2021/04/30 05:04:45;;;;;;;18.13;14.25;;;7.80;99.90;;;;;;4975110;28;20053;-68
2021/04/30 05:07:11;;;;;;;17.95;14.27;;;7.80;99.90;;;;;;4975519;28;20037;-68
2021/04/30 05:09:36;;;;;;;19.55;14.38;;;7.90;99.90;;;;;;4974951;28;20023;-68
2021/04/30 05:12:02;;;;;;;17.80;13.57;;;7.80;99.90;;;;;;4975526;28;20408;-68
2021/04/30 05:14:28;;;;;;;20.23;14.23;;;7.90;99.90;;;;;;4974017;28;20034;-81
2021/04/30 05:16:54;;;;;;;20.33;13.15;;;7.80;99.90;;;;;;4957584;28;20027;-68
2021/04/30 05:19:19;;;;;;;18.05;13.02;;;7.90;99.90;;;;;;4958547;28;20114;-68
2021/04/30 05:21:46;;;;;;;20.90;13.32;;;8.10;99.90;;;;;;4956735;28;20026;-69
2021/04/30 05:24:13;;;;;;;21.88;13.80;;;8.20;99.90;;;;;;4975093;28;20027;-68
2021/04/30 05:26:39;;;;;;;17.55;13.65;;;8.20;99.90;;;;;;4956891;28;20030;-71
2021/04/30 05:29:05;;;;;;;21.13;14.20;;;8.40;99.90;;;;;;4957581;28;20165;-69
2021/04/30 05:31:35;;;;;;;16.17;13.43;;;8.50;99.90;;;;;;4974137;28;20035;-69
2021/04/30 05:34:02;;;;;;;19.48;13.30;;;8.60;99.90;;;;;;4974868;28;20030;-69
2021/04/30 05:36:27;;;;;;;26.13;14.43;;;8.40;99.90;;;;;;4957457;28;20078;-70
2021/04/30 05:38:53;;;;;;;20.65;14.43;;;8.00;99.90;;;;;;4956691;28;20022;-68
2021/04/30 05:41:19;;;;;;;38.28;20.40;;;8.10;99.90;;;;;;4957154;28;20034;-64
2021/04/30 05:43:45;;;;;;;37.85;25.45;;;9.10;99.90;;;;;;4953375;29;20054;-64
2021/04/30 05:46:11;;;;;;;22.02;15.77;;;9.40;99.90;;;;;;4953755;29;20039;-63
2021/04/30 05:48:36;;;;;;;23.52;16.20;;;8.90;99.90;;;;;;4954855;28;20433;-62
2021/04/30 05:51:02;;;;;;;27.10;17.63;;;9.10;99.90;;;;;;4953873;29;20114;-63
2021/04/30 05:53:28;;;;;;;25.73;15.48;;;9.30;99.90;;;;;;4953983;29;20089;-69
2021/04/30 05:55:54;;;;;;;14.20;10.85;;;9.30;99.90;;;;;;4953517;28;20104;-68
2021/04/30 05:58:20;;;;;;;12.07;10.13;;;10.10;99.90;;;;;;4954256;28;20398;-68
2021/04/30 06:00:46;;;;;;;18.00;13.57;;;10.10;99.90;;;;;;4952791;29;20058;-68
2021/04/30 06:03:11;;;;;;;19.75;14.05;;;9.90;99.90;;;;;;4953315;29;20023;-71
2021/04/30 06:05:37;;;;;;;20.65;14.45;;;9.70;99.90;;;;;;4951474;29;20466;-69
2021/04/30 06:08:04;;;;;;;15.88;13.35;;;9.70;99.90;;;;;;4953453;29;20035;-70
2021/04/30 06:10:30;;;;;;;19.42;13.90;;;9.20;99.90;;;;;;4951594;28;20031;-70
2021/04/30 06:12:56;;;;;;;17.17;13.15;;;8.80;99.90;;;;;;4950965;29;20373;-70
2021/04/30 06:15:22;;;;;;;22.25;15.40;;;9.00;99.90;;;;;;4951885;29;20119;-69
2021/04/30 06:17:49;;;;;;;20.77;14.80;;;8.90;99.90;;;;;;4950779;29;20075;-70
2021/04/30 06:20:14;;;;;;;26.83;16.42;;;8.90;99.90;;;;;;4953293;28;20058;-70
2021/04/30 06:22:40;;;;;;;18.75;14.73;;;9.10;99.90;;;;;;4952490;28;20125;-71
2021/04/30 06:25:06;;;;;;;20.92;14.85;;;8.80;99.90;;;;;;4954666;29;20422;-69
2021/04/30 06:27:32;;;;;;;21.23;14.57;;;8.90;99.90;;;;;;4951785;28;20066;-70
2021/04/30 06:29:57;;;;;;;22.45;14.73;;;8.90;99.90;;;;;;4950667;29;20075;-69
2021/04/30 06:32:23;;;;;;;23.45;15.48;;;9.10;99.90;;;;;;4952214;28;20019;-69
2021/04/30 06:34:49;;;;;;;20.77;14.13;;;9.60;99.90;;;;;;4952356;28;20369;-70
2021/04/30 06:37:16;;;;;;;20.20;14.13;;;9.70;99.90;;;;;;4952833;28;20035;-70
2021/04/30 06:39:42;;;;;;;17.83;13.65;;;9.90;99.40;;;;;;4950677;29;20540;-69
2021/04/30 06:42:07;;;;;;;17.10;12.85;;;10.20;99.00;;;;;;4951262;29;20151;-68
2021/04/30 06:44:33;;;;;;;16.75;13.23;;;10.30;98.70;;;;;;4949837;29;20098;-68
2021/04/30 06:46:59;;;;;;;16.80;12.88;;;10.00;98.40;;;;;;4952491;28;20115;-68
2021/04/30 06:49:25;;;;;;;15.20;12.77;;;10.40;98.40;;;;;;4951109;29;20110;-69
2021/04/30 06:51:51;;;;;;;18.52;12.82;;;10.80;97.90;;;;;;4950276;29;20162;-69
2021/04/30 06:54:18;;;;;;;15.23;12.65;;;11.00;97.40;;;;;;4952462;28;20110;-68
2021/04/30 06:56:44;;;;;;;17.45;13.35;;;11.40;96.50;;;;;;4950563;28;20035;-68
2021/04/30 06:59:10;;;;;;;20.13;13.50;;;11.50;95.80;;;;;;4952715;28;20065;-68
2021/04/30 07:01:36;;;;;;;13.52;11.88;;;11.20;96.00;;;;;;4950448;29;20424;-68
2021/04/30 07:04:02;;;;;;;20.73;13.00;;;11.20;95.70;;;;;;4952581;29;20023;-68
2021/04/30 07:06:27;;;;;;;17.85;13.32;;;10.80;96.30;;;;;;4951933;28;20027;-69
2021/04/30 07:08:53;;;;;;;19.25;13.10;;;10.60;96.50;;;;;;4949621;28;20512;-68
2021/04/30 07:11:19;;;;;;;20.38;13.52;;;10.70;96.40;;;;;;4952161;28;20063;-70
2021/04/30 07:13:45;;;;;;;19.45;12.95;;;10.70;96.50;;;;;;4949590;28;20069;-68
2021/04/30 07:16:11;;;;;;;17.05;11.98;;;10.80;96.10;;;;;;4952648;28;20035;-69
2021/04/30 07:18:36;;;;;;;16.90;12.15;;;10.60;96.50;;;;;;4950234;28;20027;-68
2021/04/30 07:21:02;;;;;;;16.13;12.05;;;10.80;96.10;;;;;;4951622;28;20023;-68
2021/04/30 07:23:28;;;;;;;15.52;11.73;;;10.80;96.50;;;;;;4951284;28;20369;-69
2021/04/30 07:25:54;;;;;;;21.02;11.52;;;10.80;96.50;;;;;;4950807;28;20062;-68
2021/04/30 07:28:20;;;;;;;21.25;11.82;;;11.10;95.10;;;;;;4950788;28;20027;-68
2021/04/30 07:30:46;;;;;;;14.68;11.05;;;11.20;94.90;;;;;;4951430;28;20034;-70
2021/04/30 07:33:11;;;;;;;19.58;11.25;;;11.20;94.90;;;;;;4951780;28;20024;-70
2021/04/30 07:35:39;;;;;;;18.50;11.05;;;11.40;94.00;;;;;;4951332;28;20110;-69
2021/04/30 07:38:05;;;;;;;14.45;10.85;;;11.50;94.00;;;;;;4950522;28;20023;-68
2021/04/30 07:40:32;;;;;;;13.00;11.00;;;11.40;94.10;;;;;;4950392;28;20046;-79
2021/04/30 07:42:58;;;;;;;13.82;10.68;;;11.50;94.50;;;;;;4951103;28;20042;-69
2021/04/30 07:45:23;;;;;;;19.30;10.95;;;11.70;94.40;;;;;;4953081;28;20554;-68
2021/04/30 07:47:49;;;;;;;14.30;11.45;;;11.60;94.40;;;;;;4970234;28;20027;-68
2021/04/30 07:50:15;;;;;;;19.35;12.52;;;11.80;94.00;;;;;;4970937;28;20050;-68
2021/04/30 07:52:40;;;;;;;16.38;12.07;;;11.90;94.00;;;;;;4952645;28;20026;-69
2021/04/30 07:55:06;;;;;;;13.73;10.13;;;12.00;93.40;;;;;;4953104;28;20464;-69
2021/04/30 07:57:35;;;;;;;18.52;11.40;;;11.90;93.80;;;;;;4969891;28;20046;-68
2021/04/30 08:00:03;;;;;;;14.07;10.32;;;11.80;94.20;;;;;;4953124;28;20475;-68
2021/04/30 08:02:28;;;;;;;20.40;10.85;;;11.80;94.30;;;;;;4969677;28;20501;-68
2021/04/30 08:04:54;;;;;;;12.50;9.05;;;11.80;94.50;;;;;;4952092;28;20030;-71
2021/04/30 08:07:19;;;;;;;15.15;10.80;;;11.90;94.60;;;;;;4971027;28;20026;-69
2021/04/30 08:09:45;;;;;;;14.27;9.65;;;11.80;94.80;;;;;;4970195;28;20101;-69
2021/04/30 08:12:11;;;;;;;13.57;10.32;;;12.00;94.90;;;;;;4976634;28;20041;-69
2021/04/30 08:14:37;;;;;;;16.55;11.32;;;12.10;94.60;;;;;;4978796;28;20567;-66
2021/04/30 08:17:02;;;;;;;13.50;10.07;;;12.10;94.80;;;;;;4977288;28;20127;-68
2021/04/30 08:19:28;;;;;;;14.07;10.43;;;12.30;94.60;;;;;;4960742;28;20112;-68
2021/04/30 08:21:54;;;;;;;16.30;10.93;;;12.40;94.40;;;;;;4978194;28;20027;-68
2021/04/30 08:24:22;;;;;;;14.70;11.07;;;12.60;93.80;;;;;;4960906;28;20317;-67
2021/04/30 08:26:48;;;;;;;15.02;11.80;;;12.50;93.70;;;;;;4960489;28;20030;-68
2021/04/30 08:29:15;;;;;;;14.43;10.60;;;12.40;93.90;;;;;;4979995;28;20574;-67
2021/04/30 08:31:42;;;;;;;16.40;11.65;;;12.30;94.30;;;;;;4971017;28;20035;-69
2021/04/30 08:34:08;;;;;;;13.15;11.13;;;12.50;94.50;;;;;;4972342;28;20094;-68
2021/04/30 08:36:34;;;;;;;14.70;11.40;;;12.60;94.00;;;;;;4974610;28;20058;-76
2021/04/30 08:38:59;;;;;;;16.95;12.57;;;12.50;93.90;;;;;;4975168;28;20065;-67
2021/04/30 08:41:26;;;;;;;16.20;12.48;;;12.40;93.70;;;;;;4971543;28;20050;-69
2021/04/30 08:43:52;;;;;;;15.05;11.43;;;12.20;94.30;;;;;;4947916;28;20057;-68
2021/04/30 08:46:18;;;;;;;15.52;11.68;;;12.10;94.10;;;;;;4945775;28;20038;-68
2021/04/30 08:48:45;;;;;;;19.05;14.07;;;12.00;95.10;;;;;;4944681;28;20078;-69
2021/04/30 08:51:12;;;;;;;16.42;12.40;;;11.90;95.10;;;;;;4962113;28;20078;-68
2021/04/30 08:53:41;;;;;;;14.25;11.15;;;11.80;95.40;;;;;;4950364;28;20110;-68
2021/04/30 08:56:07;;;;;;;16.00;11.00;;;12.10;95.10;;;;;;4960779;28;20073;-69
2021/04/30 08:58:36;;;;;;;16.08;10.52;;;12.10;95.20;;;;;;4964349;28;20031;-77
2021/04/30 09:01:03;;;;;;;14.95;11.07;;;12.10;94.60;;;;;;4964013;28;20037;-69
2021/04/30 09:03:29;;;;;;;12.55;10.63;;;12.10;94.70;;;;;;4962359;28;20082;-67
2021/04/30 09:05:56;;;;;;;15.45;12.13;;;12.10;94.80;;;;;;4963008;28;20034;-67
2021/04/30 09:08:25;;;;;;;12.93;11.05;;;12.30;94.40;;;;;;4983133;28;20033;-67
2021/04/30 09:10:51;;;;;;;14.18;10.60;;;12.30;94.70;;;;;;4963446;28;20030;-68
2021/04/30 09:13:22;;;;;;;17.63;11.43;;;12.70;93.70;;;;;;4963903;28;20030;-69
2021/04/30 09:16:08;;;;;;;;;;;12.90;93.30;;;;;;4964993;28;20495;-67
2021/04/30 09:18:34;;;;;;;12.60;10.40;;;12.40;93.40;;;;;;4960481;28;20404;-68
2021/04/30 09:21:11;;;;;;;16.48;12.63;;;12.70;93.10;;;;;;4944246;28;20062;-68
2021/04/30 09:23:48;;;;;;;18.98;12.43;;;12.80;93.20;;;;;;4944988;28;20141;-70
2021/04/30 09:26:43;;;;;;;14.43;9.73;;;12.60;92.90;;;;;;4969478;28;20031;-68
2021/04/30 09:29:13;;;;;;;10.68;9.43;;;12.90;92.80;;;;;;4954136;28;20077;-67
2021/04/30 09:31:42;;;;;;;17.15;12.48;;;13.10;92.30;;;;;;4952451;28;20061;-66
2021/04/30 09:34:26;;;;;;;18.90;11.25;;;13.00;92.80;;;;;;4945126;28;20094;-68
2021/04/30 09:37:09;;;;;;;17.05;11.05;;;13.10;92.50;;;;;;4952569;29;20118;-67
2021/04/30 09:39:53;;;;;;;13.75;10.23;;;12.80;92.60;;;;;;4935102;29;20469;-73
2021/04/30 09:42:21;;;;;;;13.38;9.48;;;13.00;92.60;;;;;;4935365;29;20054;-69
2021/04/30 09:44:50;;;;;;;13.60;9.00;;;13.20;92.00;;;;;;4931482;29;20206;-66
2021/04/30 09:47:25;;;;;;;13.27;9.75;;;13.20;91.50;;;;;;4932811;29;20156;-68
2021/04/30 09:50:03;;;;;;;15.45;10.50;;;13.20;91.80;;;;;;4930101;29;20198;-67
2021/04/30 09:52:31;;;;;;;15.88;11.32;;;13.00;91.90;;;;;;4929718;29;20028;-69
2021/04/30 09:55:03;;;;;;;10.80;9.38;;;12.90;92.00;;;;;;4928612;29;20028;-67
2021/04/30 09:57:31;;;;;;;18.17;12.70;;;12.80;91.60;;;;;;4928274;29;20035;-71
2021/04/30 10:00:06;;;;;;;22.90;14.40;;;12.70;91.90;;;;;;4930005;29;20512;-68
2021/04/30 10:02:35;;;;;;;14.57;10.82;;;12.50;92.40;;;;;;4928433;29;20099;-68
2021/04/30 10:05:17;;;;;;;15.00;10.60;;;12.50;92.00;;;;;;4930520;29;20069;-72
2021/04/30 10:07:44;;;;;;;21.58;12.95;;;12.50;92.20;;;;;;4929254;29;20059;-78
2021/04/30 10:10:12;;;;;;;15.18;9.55;;;12.60;92.30;;;;;;4930698;29;20028;-69
2021/04/30 10:12:40;;;;;;;12.25;9.63;;;12.60;92.30;;;;;;4929103;29;20074;-67
2021/04/30 10:15:08;;;;;;;13.60;10.23;;;12.50;92.20;;;;;;4930537;29;20040;-68
2021/04/30 10:17:35;;;;;;;17.80;10.60;;;12.50;92.20;;;;;;4929963;29;20028;-68
2021/04/30 10:20:01;;;;;;;14.13;10.70;;;12.50;92.20;;;;;;4930549;29;20039;-70
2021/04/30 10:22:28;;;;;;;13.25;9.80;;;12.40;92.30;;;;;;4929701;29;20097;-66
2021/04/30 10:24:56;;;;;;;12.20;9.27;;;12.60;91.80;;;;;;4928961;29;20354;-69
2021/04/30 10:27:38;;;;;;;12.75;9.50;;;12.70;91.30;;;;;;4929766;29;20027;-67
2021/04/30 10:30:30;;;;;;;19.73;11.25;;;12.90;90.80;;;;;;4926777;29;20027;-65
2021/04/30 10:33:09;;;;;;;13.18;8.98;;;12.70;91.10;;;;;;4929012;29;20024;-67
2021/04/30 10:35:55;;;;;;;15.95;10.13;;;12.80;90.50;;;;;;4929633;29;20031;-68
2021/04/30 10:38:24;;;;;;;13.63;9.63;;;12.80;90.90;;;;;;4928381;29;20123;-69
2021/04/30 10:41:10;;;;;;;11.45;9.45;;;12.30;91.20;;;;;;4931912;29;20038;-70
2021/04/30 10:43:37;;;;;;;14.43;10.52;;;12.50;91.40;;;;;;4933611;28;20044;-68
2021/04/30 10:46:20;;;;;;;13.18;10.25;;;12.70;91.10;;;;;;4956892;28;20129;-68
2021/04/30 10:49:07;;;;;;;13.77;10.00;;;13.00;91.00;;;;;;4960725;28;20031;-68
2021/04/30 10:51:35;;;;;;;12.63;9.15;;;13.20;91.10;;;;;;4959687;28;20022;-69
2021/04/30 10:54:27;;;;;;;11.70;9.32;;;13.30;91.00;;;;;;4944796;28;20034;-70
2021/04/30 10:57:04;;;;;;;15.70;9.00;;;13.40;90.50;;;;;;4956750;28;20083;-67
2021/04/30 10:59:36;;;;;;;15.43;10.25;;;13.40;90.80;;;;;;4940971;28;20027;-69
2021/04/30 11:02:33;;;;;;;13.55;10.20;;;13.30;90.50;;;;;;4960006;28;20023;-67
2021/04/30 11:05:11;;;;;;;13.13;9.50;;;13.20;90.50;;;;;;4967109;28;20642;-67
2021/04/30 11:07:50;;;;;;;13.57;10.30;;;13.20;90.60;;;;;;4978998;28;20076;-82
2021/04/30 11:10:30;;;;;;;11.60;9.90;;;13.10;90.70;;;;;;4980483;28;20094;-67
2021/04/30 11:12:58;;;;;;;19.10;11.50;;;13.00;91.50;;;;;;4958686;28;20027;-67
2021/04/30 11:15:25;;;;;;;14.27;10.30;;;13.10;91.50;;;;;;4977380;28;20469;-69
2021/04/30 11:18:02;;;;;;;16.38;10.18;;;13.30;91.30;;;;;;4961331;28;20026;-71
2021/04/30 11:20:33;;;;;;;16.88;12.25;;;13.40;91.50;;;;;;4954064;28;20030;-68
2021/04/30 11:23:15;;;;;;;20.83;12.75;;;13.30;91.30;;;;;;4977728;28;20030;-73
2021/04/30 11:26:03;;;;;;;15.38;11.38;;;12.80;92.10;;;;;;4970031;28;20045;-67
2021/04/30 11:28:34;;;;;;;16.38;10.82;;;13.20;92.20;;;;;;4950658;28;20058;-68
2021/04/30 11:31:09;;;;;;;19.23;13.25;;;13.50;91.30;;;;;;4950760;28;20057;-68
2021/04/30 11:33:43;;;;;;;15.27;10.98;;;13.90;91.30;;;;;;4968394;28;20069;-67
2021/04/30 11:36:14;;;;;;;23.08;11.00;;;14.00;90.50;;;;;;4970676;28;20030;-67
2021/04/30 11:38:43;;;;;;;;;;;14.20;90.60;;;;;;4951641;28;20050;-70
2021/04/30 11:41:10;;;;;;;26.02;14.40;;;14.00;90.50;;;;;;4968041;28;20007;-70
2021/04/30 11:43:41;;;;;;;14.07;10.88;;;14.20;91.90;;;;;;4949260;28;20031;-69
2021/04/30 11:46:08;;;;;;;16.13;10.50;;;14.10;91.50;;;;;;4968699;28;20038;-69
2021/04/30 11:48:34;;;;;;;16.10;11.15;;;14.10;90.90;;;;;;4950879;28;20049;-70
2021/04/30 11:51:05;;;;;;;13.48;10.63;;;14.00;90.90;;;;;;4967104;28;20042;-68
2021/04/30 11:53:36;;;;;;;18.05;10.85;;;13.70;91.00;;;;;;4968132;28;20026;-71
2021/04/30 11:56:03;;;;;;;18.67;10.98;;;13.40;92.20;;;;;;4951519;28;20081;-70
2021/04/30 11:58:39;;;;;;;17.27;11.65;;;13.10;92.70;;;;;;4970565;28;20035;-68
2021/04/30 12:01:07;;;;;;;13.77;10.70;;;13.10;93.90;;;;;;4952025;28;20062;-71
2021/04/30 12:04:05;;;;;;;14.30;11.10;;;13.40;93.10;;;;;;4950105;28;20027;-69
2021/04/30 12:06:31;;;;;;;11.27;9.13;;;13.30;93.20;;;;;;4916341;28;20050;-69
2021/04/30 12:08:57;;;;;;;13.45;11.02;;;13.50;93.20;;;;;;4951560;28;20558;-69
2021/04/30 12:11:28;;;;;;;14.85;11.27;;;13.50;92.60;;;;;;4953167;28;20027;-68
2021/04/30 12:13:57;;;;;;;16.05;12.13;;;13.50;92.80;;;;;;4956683;28;20178;-69
2021/04/30 12:16:24;;;;;;;13.07;9.90;;;13.40;92.90;;;;;;4973915;28;20039;-68
2021/04/30 12:18:57;;;;;;;16.35;11.45;;;13.50;93.00;;;;;;4973031;28;20348;-69
2021/04/30 12:21:33;;;;;;;14.05;10.43;;;13.40;92.90;;;;;;4955884;28;20133;-69
2021/04/30 12:24:04;;;;;;;15.48;12.57;;;13.40;93.60;;;;;;4959485;28;20583;-70
2021/04/30 12:26:32;;;;;;;24.83;18.30;;;13.30;93.60;;;;;;4967419;28;20153;-69
2021/04/30 12:29:00;;;;;;;20.25;13.27;;;13.10;94.00;;;;;;4968647;28;20039;-71
2021/04/30 12:31:27;;;;;;;15.45;13.15;;;13.30;94.00;;;;;;4969884;28;20041;-68
2021/04/30 12:33:55;;;;;;;16.92;13.38;;;13.40;93.30;;;;;;4951073;28;20103;-67
2021/04/30 12:36:30;;;;;;;12.30;10.77;;;13.40;93.60;;;;;;4968547;28;20043;-68
2021/04/30 12:39:12;;;;;;;18.38;13.70;;;13.20;94.10;;;;;;4969519;28;20520;-69